This is the latest recevied weather packets stored in our database for station/object IU2DXM. If no packets are shown the sender has not sent any weather packets the latest 10 day(s).
| Time | Temp. | Humidity | Pressure | Rain* | Wind** | Luminosity | Snow |
|---|---|---|---|---|---|---|---|
| 1777257616 | 15° C | - | - | 0 mm | - | 0 W/m² | - |
| 1777257016 | 15° C | - | - | 0 mm | - | 0 W/m² | - |
| 1777253436 | 15.56° C | - | - | 0 mm | - | 0 W/m² | - |
| 1777252218 | 15.56° C | - | - | 0 mm | - | 0 W/m² | - |
| 1777250418 | 15.56° C | - | - | 0 mm | - | 0 W/m² | - |
| 1777249818 | 16.11° C | - | - | 0 mm | - | 0 W/m² | - |
| 1777248017 | 16.67° C | - | - | 0 mm | - | 0 W/m² | - |
| 1777245018 | 17.78° C | - | - | 0 mm | - | 0 W/m² | - |
| 1777234237 | 21.11° C | - | - | 0 mm | - | 0 W/m² | - |
| 1777233617 | 21.11° C | - | - | 0 mm | - | 0 W/m² | - |
| 1777232417 | 21.67° C | - | - | 0 mm | - | 0 W/m² | - |
| 1777230617 | 22.22° C | - | - | 0 mm | - | 0 W/m² | - |
| 1777218616 | 26.67° C | - | - | 0 mm | - | 257 W/m² | - |
| 1777218016 | 26.67° C | - | - | 0 mm | - | 293 W/m² | - |
| 1777214418 | 27.22° C | - | - | 0 mm | - | 462 W/m² | - |
| 1777213218 | 26.67° C | - | - | 0 mm | - | 591 W/m² | - |
| 1777208458 | 26.11° C | - | - | 0 mm | - | 676 W/m² | - |
| 1777204238 | 23.89° C | - | - | 0 mm | - | 794 W/m² | - |
| 1777195217 | 20.56° C | - | - | 0 mm | - | 676 W/m² | - |
| 1777194617 | 20° C | - | - | 0 mm | - | 637 W/m² | - |
| 1777194017 | 19.44° C | - | - | 0 mm | - | 601 W/m² | - |
| 1777191618 | 18.89° C | - | - | 0 mm | - | 567 W/m² | - |
| 1777187417 | 16.11° C | - | - | 0 mm | - | 389 W/m² | - |
| 1777186217 | 15.56° C | - | - | 0 mm | - | 331 W/m² | - |
| 1777177216 | 12.78° C | - | - | 0 mm | - | 3 W/m² | - |
* Rain latest hour (hover to see other rain measurements)
** Current wind speed in m/s (hover to see current wind gust speed)